Time,TemperatureF,DewpointF,PressureIn,WindDirection,WindDirectionDegrees,WindSpeedMPH,WindSpeedGustMPH,Humidity,HourlyPrecipIn,Conditions,Clouds,dailyrainin,SoftwareType,DateUTC
2013-03-12 00:00:00,41.4,40.6,30.20,SSE,148,5.0,7.0,97,0.00,,,0.00,HR-IXPWINDi_r2_v1.2.,2013-03-12 04:00:00,
2013-03-12 00:05:00,41.3,40.5,30.20,SSE,158,3.0,7.0,97,0.00,,,0.00,HR-IXPWINDi_r2_v1.2.,2013-03-12 04:05:00,
2013-03-12 00:10:00,41.2,40.4,30.20,SSE,160,3.0,6.0,97,0.00,,,0.00,HR-IXPWINDi_r2_v1.2.,2013-03-12 04:10:00,
2013-03-12 00:15:00,41.2,40.4,30.19,SE,145,3.0,5.0,97,0.00,,,0.00,HR-IXPWINDi_r2_v1.2.,2013-03-12 04:15:00,
2013-03-12 00:21:00,41.3,40.5,30.19,SE,142,4.0,7.0,97,0.00,,,0.00,HR-IXPWINDi_r2_v1.2.,2013-03-12 04:21:00,
2013-03-12 00:27:00,41.3,40.5,30.19,SSE,158,4.0,7.0,97,0.00,,,0.00,HR-IXPWINDi_r2_v1.2.,2013-03-12 04:27:00,
2013-03-12 00:32:00,41.4,40.6,30.19,SE,142,4.0,6.0,97,0.00,,,0.00,HR-IXPWINDi_r2_v1.2.,2013-03-12 04:32:00,
2013-03-12 00:37:00,41.5,40.7,30.20,SE,142,2.0,6.0,97,0.00,,,0.00,HR-IXPWINDi_r2_v1.2.,2013-03-12 04:37:00,
2013-03-12 00:42:00,41.6,40.8,30.20,South,188,1.0,6.0,97,0.00,,,0.00,HR-IXPWINDi_r2_v1.2.,2013-03-12 04:42:00,
2013-03-12 00:47:00,41.7,40.9,30.20,SE,132,1.0,6.0,97,0.00,,,0.00,HR-IXPWINDi_r2_v1.2.,2013-03-12 04:47:00,
2013-03-12 00:52:00,41.7,40.9,30.20,ESE,120,1.0,4.0,97,0.00,,,0.00,HR-IXPWINDi_r2_v1.2.,2013-03-12 04:52:00,
2013-03-12 00:57:00,41.9,41.1,30.20,SE,129,1.0,3.0,97,0.00,,,0.00,HR-IXPWINDi_r2_v1.2.,2013-03-12 04:57:00,
2013-03-12 01:03:00,42.0,41.2,30.20,ENE,71,2.0,3.0,97,0.00,,,0.00,HR-IXPWINDi_r2_v1.2.,2013-03-12 05:03:00,
2013-03-12 01:08:00,41.8,41.0,30.20,ESE,103,1.0,2.0,97,0.00,,,0.00,HR-IXPWINDi_r2_v1.2.,2013-03-12 05:08:00,
2013-03-12 01:13:00,41.8,41.0,30.20,East,99,1.0,2.0,97,0.00,,,0.00,HR-IXPWINDi_r2_v1.2.,2013-03-12 05:13:00,
2013-03-12 01:18:00,41.8,41.0,30.20,SSE,150,0.0,2.0,97,0.00,,,0.00,HR-IXPWINDi_r2_v1.2.,2013-03-12 05:18:00,
2013-03-12 01:23:00,41.7,40.9,30.19,ESE,115,0.0,5.0,97,0.00,,,0.00,HR-IXPWINDi_r2_v1.2.,2013-03-12 05:23:00,
2013-03-12 01:28:00,41.7,40.9,30.19,ESE,110,0.0,5.0,97,0.00,,,0.00,HR-IXPWINDi_r2_v1.2.,2013-03-12 05:28:00,
2013-03-12 01:33:00,41.7,40.9,30.19,East,85,0.0,4.0,97,0.00,,,0.00,HR-IXPWINDi_r2_v1.2.,2013-03-12 05:33:00,
2013-03-12 01:39:00,41.7,40.9,30.18,East,82,1.0,4.0,97,0.00,,,0.00,HR-IXPWINDi_r2_v1.2.,2013-03-12 05:39:00,
2013-03-12 01:44:00,41.7,40.9,30.18,ESE,119,3.0,5.0,97,0.00,,,0.00,HR-IXPWINDi_r2_v1.2.,2013-03-12 05:44:00,
2013-03-12 01:49:00,41.7,40.9,30.18,ESE,104,1.0,5.0,97,0.00,,,0.00,HR-IXPWINDi_r2_v1.2.,2013-03-12 05:49:00,
2013-03-12 01:54:00,41.6,40.8,30.18,ESE,104,0.0,4.0,97,0.00,,,0.00,HR-IXPWINDi_r2_v1.2.,2013-03-12 05:54:00,
2013-03-12 01:59:00,41.5,40.7,30.18,ESE,107,1.0,2.0,97,0.00,,,0.00,HR-IXPWINDi_r2_v1.2.,2013-03-12 05:59:00,
2013-03-12 02:04:00,41.4,40.6,30.18,SE,125,0.0,4.0,97,0.00,,,0.00,HR-IXPWINDi_r2_v1.2.,2013-03-12 06:04:00,
2013-03-12 02:09:00,41.3,40.5,30.18,SSE,150,3.0,4.0,97,0.00,,,0.00,HR-IXPWINDi_r2_v1.2.,2013-03-12 06:09:00,
2013-03-12 02:14:00,41.3,40.5,30.17,SSE,160,3.0,6.0,97,0.00,,,0.00,HR-IXPWINDi_r2_v1.2.,2013-03-12 06:14:00,
2013-03-12 02:19:00,41.3,40.5,30.17,SSE,163,5.0,8.0,97,0.00,,,0.00,HR-IXPWINDi_r2_v1.2.,2013-03-12 06:19:00,
2013-03-12 02:25:00,41.5,40.7,30.17,SSE,160,7.0,9.0,97,0.00,,,0.00,HR-IXPWINDi_r2_v1.2.,2013-03-12 06:25:00,
2013-03-12 02:30:00,41.6,40.8,30.17,SSE,162,8.0,10.0,97,0.00,,,0.00,HR-IXPWINDi_r2_v1.2.,2013-03-12 06:30:00,
2013-03-12 02:35:00,41.8,41.0,30.16,South,173,10.0,11.0,97,0.00,,,0.00,HR-IXPWINDi_r2_v1.2.,2013-03-12 06:35:00,
2013-03-12 02:40:00,42.0,41.2,30.16,SSE,160,9.0,13.0,97,0.00,,,0.00,HR-IXPWINDi_r2_v1.2.,2013-03-12 06:40:00,
2013-03-12 02:45:00,42.1,41.3,30.16,SSE,160,11.0,13.0,97,0.00,,,0.00,HR-IXPWINDi_r2_v1.2.,2013-03-12 06:45:00,
2013-03-12 02:50:00,42.1,41.3,30.16,South,170,7.0,13.0,97,0.00,,,0.00,HR-IXPWINDi_r2_v1.2.,2013-03-12 06:50:00,
2013-03-12 02:56:00,42.2,41.4,30.15,SSE,155,8.0,13.0,97,0.00,,,0.00,HR-IXPWINDi_r2_v1.2.,2013-03-12 06:56:00,
2013-03-12 03:01:00,42.3,41.5,30.15,SSE,153,10.0,13.0,97,0.00,,,0.00,HR-IXPWINDi_r2_v1.2.,2013-03-12 07:01:00,
2013-03-12 03:06:00,42.4,41.6,30.15,SSE,155,12.0,14.0,97,0.00,,,0.00,HR-IXPWINDi_r2_v1.2.,2013-03-12 07:06:00,
2013-03-12 03:11:00,42.6,41.8,30.15,SSE,153,12.0,14.0,97,0.00,,,0.00,HR-IXPWINDi_r2_v1.2.,2013-03-12 07:11:00,
2013-03-12 03:17:00,42.7,41.9,30.14,SSE,162,14.0,15.0,97,0.00,,,0.00,HR-IXPWINDi_r2_v1.2.,2013-03-12 07:17:00,
2013-03-12 03:22:00,42.8,42.0,30.14,SSE,158,12.0,15.0,97,0.00,,,0.00,HR-IXPWINDi_r2_v1.2.,2013-03-12 07:22:00,
2013-03-12 03:27:00,43.1,42.3,30.14,SSE,162,15.0,16.0,97,0.00,,,0.00,HR-IXPWINDi_r2_v1.2.,2013-03-12 07:27:00,
2013-03-12 03:33:00,43.1,42.3,30.13,SSE,162,13.0,16.0,97,0.00,,,0.00,HR-IXPWINDi_r2_v1.2.,2013-03-12 07:33:00,
2013-03-12 03:38:00,43.1,42.3,30.13,SSE,162,11.0,17.0,97,0.00,,,0.00,HR-IXPWINDi_r2_v1.2.,2013-03-12 07:38:00,
2013-03-12 03:43:00,43.0,42.2,30.13,SSE,153,12.0,18.0,97,0.00,,,0.00,HR-IXPWINDi_r2_v1.2.,2013-03-12 07:43:00,
2013-03-12 03:48:00,43.1,42.3,30.13,SE,137,14.0,19.0,97,0.00,,,0.00,HR-IXPWINDi_r2_v1.2.,2013-03-12 07:48:00,
2013-03-12 03:53:00,43.1,42.3,30.12,SSE,158,14.0,19.0,97,0.00,,,0.00,HR-IXPWINDi_r2_v1.2.,2013-03-12 07:53:00,
2013-03-12 03:58:00,43.1,42.3,30.12,SSE,164,14.0,18.0,97,0.00,,,0.00,HR-IXPWINDi_r2_v1.2.,2013-03-12 07:58:00,
2013-03-12 04:03:00,43.2,42.4,30.11,SSE,148,15.0,18.0,97,0.00,,,0.00,HR-IXPWINDi_r2_v1.2.,2013-03-12 08:03:00,
2013-03-12 04:08:00,43.5,42.6,30.11,SSE,153,12.0,19.0,97,0.00,,,0.00,HR-IXPWINDi_r2_v1.2.,2013-03-12 08:08:00,
2013-03-12 04:13:00,43.7,42.8,30.11,SSE,166,14.0,19.0,97,0.00,,,0.00,HR-IXPWINDi_r2_v1.2.,2013-03-12 08:13:00,
2013-03-12 04:18:00,43.9,43.0,30.11,SSE,162,13.0,19.0,97,0.00,,,0.00,HR-IXPWINDi_r2_v1.2.,2013-03-12 08:18:00,
2013-03-12 04:23:00,44.0,43.1,30.11,SSE,156,13.0,18.0,97,0.00,,,0.00,HR-IXPWINDi_r2_v1.2.,2013-03-12 08:23:00,
2013-03-12 04:28:00,44.1,43.2,30.11,SSE,154,15.0,20.0,97,0.00,,,0.00,HR-IXPWINDi_r2_v1.2.,2013-03-12 08:28:00,
2013-03-12 04:34:00,44.1,43.2,30.11,SE,145,14.0,20.0,97,0.00,,,0.00,HR-IXPWINDi_r2_v1.2.,2013-03-12 08:34:00,
2013-03-12 04:39:00,44.3,43.4,30.11,SSE,160,12.0,20.0,97,0.00,,,0.00,HR-IXPWINDi_r2_v1.2.,2013-03-12 08:39:00,
2013-03-12 04:44:00,44.5,43.6,30.11,SSE,156,17.0,20.0,97,0.00,,,0.00,HR-IXPWINDi_r2_v1.2.,2013-03-12 08:44:00,
2013-03-12 04:49:00,44.5,43.6,30.11,SE,142,13.0,19.0,97,0.00,,,0.00,HR-IXPWINDi_r2_v1.2.,2013-03-12 08:49:00,
2013-03-12 04:54:00,44.5,43.6,30.10,SSE,152,15.0,19.0,97,0.00,,,0.00,HR-IXPWINDi_r2_v1.2.,2013-03-12 08:54:00,
2013-03-12 04:59:00,44.5,43.6,30.11,SSE,152,14.0,20.0,97,0.00,,,0.00,HR-IXPWINDi_r2_v1.2.,2013-03-12 08:59:00,
2013-03-12 05:05:00,44.4,43.5,30.11,SSE,158,16.0,20.0,97,0.00,,,0.00,HR-IXPWINDi_r2_v1.2.,2013-03-12 09:05:00,
2013-03-12 05:10:00,44.2,43.1,30.11,SSE,160,13.0,21.0,96,0.00,,,0.00,HR-IXPWINDi_r2_v1.2.,2013-03-12 09:10:00,
2013-03-12 05:15:00,44.3,43.4,30.10,South,176,12.0,22.0,97,0.00,,,0.00,HR-IXPWINDi_r2_v1.2.,2013-03-12 09:15:00,
2013-03-12 05:20:00,44.3,43.4,30.10,SSE,148,13.0,22.0,97,0.00,,,0.00,HR-IXPWINDi_r2_v1.2.,2013-03-12 09:20:00,
2013-03-12 05:25:00,44.3,43.4,30.11,SSE,150,15.0,19.0,97,0.00,,,0.00,HR-IXPWINDi_r2_v1.2.,2013-03-12 09:25:00,
2013-03-12 05:30:00,44.4,43.5,30.10,SSE,150,16.0,20.0,97,0.00,,,0.00,HR-IXPWINDi_r2_v1.2.,2013-03-12 09:30:00,
2013-03-12 05:36:00,44.3,43.2,30.11,SE,144,14.0,20.0,96,0.00,,,0.00,HR-IXPWINDi_r2_v1.2.,2013-03-12 09:36:00,
2013-03-12 05:41:00,44.2,43.1,30.11,SSE,148,18.0,20.0,96,0.00,,,0.00,HR-IXPWINDi_r2_v1.2.,2013-03-12 09:41:00,
2013-03-12 05:46:00,44.2,43.1,30.10,SSE,148,16.0,20.0,96,0.00,,,0.00,HR-IXPWINDi_r2_v1.2.,2013-03-12 09:46:00,
2013-03-12 05:52:00,44.3,43.2,30.11,SE,145,13.0,20.0,96,0.00,,,0.00,HR-IXPWINDi_r2_v1.2.,2013-03-12 09:52:00,
2013-03-12 05:57:00,44.4,43.5,30.11,SSE,152,14.0,19.0,97,0.00,,,0.00,HR-IXPWINDi_r2_v1.2.,2013-03-12 09:57:00,
2013-03-12 06:02:00,44.5,43.6,30.11,SSE,160,16.0,19.0,97,0.00,,,0.00,HR-IXPWINDi_r2_v1.2.,2013-03-12 10:02:00,
2013-03-12 06:07:00,44.7,43.8,30.10,SSE,156,16.0,19.0,97,0.00,,,0.00,HR-IXPWINDi_r2_v1.2.,2013-03-12 10:07:00,
2013-03-12 06:12:00,44.8,43.7,30.10,SSE,158,13.0,19.0,96,0.00,,,0.00,HR-IXPWINDi_r2_v1.2.,2013-03-12 10:12:00,
2013-03-12 06:17:00,44.7,43.6,30.10,SSE,150,14.0,18.0,96,0.00,,,0.00,HR-IXPWINDi_r2_v1.2.,2013-03-12 10:17:00,
2013-03-12 06:23:00,44.5,43.4,30.10,SSE,160,12.0,17.0,96,0.00,,,0.00,HR-IXPWINDi_r2_v1.2.,2013-03-12 10:23:00,
2013-03-12 06:28:00,44.2,43.1,30.10,South,169,11.0,17.0,96,0.00,,,0.00,HR-IXPWINDi_r2_v1.2.,2013-03-12 10:28:00,
2013-03-12 06:33:00,44.1,43.0,30.09,SSE,150,13.0,17.0,96,0.00,,,0.00,HR-IXPWINDi_r2_v1.2.,2013-03-12 10:33:00,
2013-03-12 06:38:00,44.1,43.0,30.09,SE,145,13.0,17.0,96,0.00,,,0.00,HR-IXPWINDi_r2_v1.2.,2013-03-12 10:38:00,
2013-03-12 06:43:00,44.0,42.9,30.09,SSE,148,13.0,16.0,96,0.00,,,0.00,HR-IXPWINDi_r2_v1.2.,2013-03-12 10:43:00,
2013-03-12 06:48:00,44.0,42.9,30.09,SSE,155,14.0,18.0,96,0.00,,,0.00,HR-IXPWINDi_r2_v1.2.,2013-03-12 10:48:00,
2013-03-12 06:54:00,44.1,43.0,30.09,SSE,167,12.0,18.0,96,0.00,,,0.00,HR-IXPWINDi_r2_v1.2.,2013-03-12 10:54:00,
2013-03-12 06:59:00,44.0,42.9,30.09,SE,143,16.0,17.0,96,0.00,,,0.00,HR-IXPWINDi_r2_v1.2.,2013-03-12 10:59:00,
2013-03-12 07:04:00,44.1,43.2,30.09,SE,129,13.0,18.0,97,0.00,,,0.00,HR-IXPWINDi_r2_v1.2.,2013-03-12 11:04:00,
2013-03-12 07:09:00,44.1,43.2,30.09,SSE,158,15.0,18.0,97,0.00,,,0.00,HR-IXPWINDi_r2_v1.2.,2013-03-12 11:09:00,
2013-03-12 07:14:00,44.1,43.2,30.09,SE,146,13.0,18.0,97,0.00,,,0.00,HR-IXPWINDi_r2_v1.2.,2013-03-12 11:14:00,
2013-03-12 07:19:00,44.3,43.4,30.09,SE,146,12.0,18.0,97,0.00,,,0.00,HR-IXPWINDi_r2_v1.2.,2013-03-12 11:19:00,
2013-03-12 07:25:00,44.5,43.6,30.09,South,169,12.0,19.0,97,0.00,,,0.00,HR-IXPWINDi_r2_v1.2.,2013-03-12 11:25:00,
2013-03-12 07:30:00,44.5,43.6,30.08,SSE,148,14.0,19.0,97,0.00,,,0.00,HR-IXPWINDi_r2_v1.2.,2013-03-12 11:30:00,
2013-03-12 07:35:00,44.5,43.6,30.08,SE,146,15.0,18.0,97,0.00,,,0.00,HR-IXPWINDi_r2_v1.2.,2013-03-12 11:35:00,
2013-03-12 07:40:00,44.6,43.7,30.08,SE,138,17.0,19.0,97,0.00,,,0.00,HR-IXPWINDi_r2_v1.2.,2013-03-12 11:40:00,
2013-03-12 07:45:00,44.7,43.8,30.08,SE,145,12.0,21.0,97,0.00,,,0.00,HR-IXPWINDi_r2_v1.2.,2013-03-12 11:45:00,
2013-03-12 07:50:00,44.5,43.6,30.08,SSE,155,14.0,21.0,97,0.00,,,0.00,HR-IXPWINDi_r2_v1.2.,2013-03-12 11:50:00,
2013-03-12 07:55:00,44.5,43.6,30.08,South,169,14.0,18.0,97,0.00,,,0.00,HR-IXPWINDi_r2_v1.2.,2013-03-12 11:55:00,
2013-03-12 08:00:00,44.5,43.6,30.08,SE,125,16.0,18.0,97,0.00,,,0.00,HR-IXPWINDi_r2_v1.2.,2013-03-12 12:00:00,
2013-03-12 08:05:00,44.5,43.6,30.08,SSE,153,16.0,20.0,97,0.00,,,0.00,HR-IXPWINDi_r2_v1.2.,2013-03-12 12:05:00,
2013-03-12 08:10:00,44.6,43.7,30.08,SSE,151,17.0,20.0,97,0.00,,,0.00,HR-IXPWINDi_r2_v1.2.,2013-03-12 12:10:00,
2013-03-12 08:15:00,44.6,43.7,30.08,SSE,155,10.0,20.0,97,0.00,,,0.00,HR-IXPWINDi_r2_v1.2.,2013-03-12 12:15:00,
2013-03-12 08:20:00,44.6,43.7,30.08,ESE,122,10.0,19.0,97,0.00,,,0.00,HR-IXPWINDi_r2_v1.2.,2013-03-12 12:20:00,
2013-03-12 08:25:00,44.5,43.6,30.08,SSE,165,11.0,19.0,97,0.00,,,0.00,HR-IXPWINDi_r2_v1.2.,2013-03-12 12:25:00,
2013-03-12 08:30:00,44.4,43.5,30.08,SE,146,9.0,15.0,97,0.00,,,0.00,HR-IXPWINDi_r2_v1.2.,2013-03-12 12:30:00,
2013-03-12 08:36:00,44.3,43.4,30.08,SSE,160,9.0,15.0,97,0.00,,,0.00,HR-IXPWINDi_r2_v1.2.,2013-03-12 12:36:00,
2013-03-12 08:41:00,44.1,43.2,30.08,SSE,148,7.0,17.0,97,0.00,,,0.00,HR-IXPWINDi_r2_v1.2.,2013-03-12 12:41:00,
2013-03-12 08:46:00,44.1,43.2,30.09,SE,143,8.0,17.0,97,0.00,,,0.00,HR-IXPWINDi_r2_v1.2.,2013-03-12 12:46:00,
2013-03-12 08:51:00,44.0,43.1,30.08,SSE,158,7.0,17.0,97,0.00,,,0.00,HR-IXPWINDi_r2_v1.2.,2013-03-12 12:51:00,
2013-03-12 08:56:00,44.0,43.1,30.09,SE,136,11.0,14.0,97,0.00,,,0.00,HR-IXPWINDi_r2_v1.2.,2013-03-12 12:56:00,
2013-03-12 09:01:00,44.0,43.1,30.09,SE,137,9.0,15.0,97,0.00,,,0.00,HR-IXPWINDi_r2_v1.2.,2013-03-12 13:01:00,
2013-03-12 09:07:00,44.0,43.1,30.09,SE,146,8.0,15.0,97,0.00,,,0.00,HR-IXPWINDi_r2_v1.2.,2013-03-12 13:07:00,
2013-03-12 09:12:00,44.0,43.1,30.09,SE,143,5.0,13.0,97,0.00,,,0.00,HR-IXPWINDi_r2_v1.2.,2013-03-12 13:12:00,
2013-03-12 09:17:00,44.2,43.3,30.09,SE,137,9.0,16.0,97,0.00,,,0.00,HR-IXPWINDi_r2_v1.2.,2013-03-12 13:17:00,
2013-03-12 09:22:00,44.3,43.4,30.09,SE,131,10.0,16.0,97,0.00,,,0.00,HR-IXPWINDi_r2_v1.2.,2013-03-12 13:22:00,
2013-03-12 09:27:00,44.2,43.3,30.09,SE,124,4.0,14.0,97,0.00,,,0.00,HR-IXPWINDi_r2_v1.2.,2013-03-12 13:27:00,
2013-03-12 09:32:00,44.1,43.2,30.08,SE,131,6.0,14.0,97,0.00,,,0.00,HR-IXPWINDi_r2_v1.2.,2013-03-12 13:32:00,
2013-03-12 09:38:00,44.1,43.2,30.08,SE,124,11.0,13.0,97,0.00,,,0.00,HR-IXPWINDi_r2_v1.2.,2013-03-12 13:38:00,
2013-03-12 09:43:00,44.3,43.4,30.08,ESE,120,9.0,15.0,97,0.00,,,0.00,HR-IXPWINDi_r2_v1.2.,2013-03-12 13:43:00,
2013-03-12 09:48:00,44.3,43.4,30.07,SSE,153,7.0,15.0,97,0.00,,,0.00,HR-IXPWINDi_r2_v1.2.,2013-03-12 13:48:00,
2013-03-12 09:53:00,44.4,43.5,30.07,SE,139,12.0,14.0,97,0.00,,,0.00,HR-IXPWINDi_r2_v1.2.,2013-03-12 13:53:00,
2013-03-12 09:58:00,44.4,43.5,30.07,SE,129,7.0,13.0,97,0.00,,,0.00,HR-IXPWINDi_r2_v1.2.,2013-03-12 13:58:00,
2013-03-12 10:03:00,44.3,43.4,30.07,SE,137,7.0,14.0,97,0.00,,,0.00,HR-IXPWINDi_r2_v1.2.,2013-03-12 14:03:00,
2013-03-12 10:08:00,44.3,43.4,30.07,SE,145,6.0,15.0,97,0.00,,,0.00,HR-IXPWINDi_r2_v1.2.,2013-03-12 14:08:00,
2013-03-12 10:13:00,44.2,43.3,30.07,SE,125,13.0,17.0,97,0.00,,,0.00,HR-IXPWINDi_r2_v1.2.,2013-03-12 14:13:00,
2013-03-12 10:19:00,44.1,43.2,30.07,SSE,152,9.0,17.0,97,0.00,,,0.00,HR-IXPWINDi_r2_v1.2.,2013-03-12 14:19:00,
2013-03-12 10:24:00,44.2,43.6,30.07,SE,142,7.0,16.0,98,0.00,,,0.00,HR-IXPWINDi_r2_v1.2.,2013-03-12 14:24:00,
2013-03-12 10:29:00,44.2,43.6,30.06,SE,145,7.0,16.0,98,0.00,,,0.00,HR-IXPWINDi_r2_v1.2.,2013-03-12 14:29:00,
2013-03-12 10:34:00,44.2,43.6,30.07,SE,130,11.0,15.0,98,0.00,,,0.00,HR-IXPWINDi_r2_v1.2.,2013-03-12 14:34:00,
2013-03-12 10:39:00,44.2,43.6,30.06,SE,141,11.0,16.0,98,0.00,,,0.00,HR-IXPWINDi_r2_v1.2.,2013-03-12 14:39:00,
2013-03-12 10:44:00,44.3,43.7,30.06,SE,131,8.0,17.0,98,0.00,,,0.00,HR-IXPWINDi_r2_v1.2.,2013-03-12 14:44:00,
2013-03-12 10:49:00,44.5,43.9,30.05,East,96,11.0,17.0,98,0.00,,,0.00,HR-IXPWINDi_r2_v1.2.,2013-03-12 14:49:00,
2013-03-12 10:54:00,44.7,44.1,30.05,ESE,118,7.0,18.0,98,0.00,,,0.00,HR-IXPWINDi_r2_v1.2.,2013-03-12 14:54:00,
2013-03-12 10:59:00,44.8,44.2,30.05,SE,137,13.0,18.0,98,0.00,,,0.00,HR-IXPWINDi_r2_v1.2.,2013-03-12 14:59:00,
2013-03-12 11:05:00,44.8,44.2,30.05,ESE,123,8.0,17.0,98,0.00,,,0.00,HR-IXPWINDi_r2_v1.2.,2013-03-12 15:05:00,
2013-03-12 11:10:00,45.0,44.4,30.05,ESE,122,7.0,16.0,98,0.00,,,0.00,HR-IXPWINDi_r2_v1.2.,2013-03-12 15:10:00,
2013-03-12 11:15:00,45.3,44.7,30.04,SE,135,9.0,16.0,98,0.00,,,0.00,HR-IXPWINDi_r2_v1.2.,2013-03-12 15:15:00,
2013-03-12 11:20:00,45.3,44.7,30.04,SE,134,8.0,16.0,98,0.00,,,0.00,HR-IXPWINDi_r2_v1.2.,2013-03-12 15:20:00,
2013-03-12 11:25:00,45.3,44.7,30.04,ESE,109,10.0,16.0,98,0.00,,,0.00,HR-IXPWINDi_r2_v1.2.,2013-03-12 15:25:00,
2013-03-12 11:30:00,45.1,44.2,30.04,SSE,148,8.0,16.0,97,0.00,,,0.00,HR-IXPWINDi_r2_v1.2.,2013-03-12 15:30:00,
2013-03-12 11:36:00,45.1,44.2,30.04,SSE,150,11.0,16.0,97,0.00,,,0.00,HR-IXPWINDi_r2_v1.2.,2013-03-12 15:36:00,
2013-03-12 11:41:00,45.1,44.2,30.04,SE,145,10.0,16.0,97,0.00,,,0.00,HR-IXPWINDi_r2_v1.2.,2013-03-12 15:41:00,
2013-03-12 11:46:00,45.1,44.2,30.04,SE,137,11.0,14.0,97,0.00,,,0.00,HR-IXPWINDi_r2_v1.2.,2013-03-12 15:46:00,
2013-03-12 11:51:00,45.5,44.6,30.03,SE,145,14.0,16.0,97,0.00,,,0.00,HR-IXPWINDi_r2_v1.2.,2013-03-12 15:51:00,
2013-03-12 11:56:00,45.6,44.7,30.03,ESE,122,9.0,18.0,97,0.00,,,0.00,HR-IXPWINDi_r2_v1.2.,2013-03-12 15:56:00,
2013-03-12 12:02:00,45.4,44.5,30.03,ESE,116,13.0,18.0,97,0.00,,,0.00,HR-IXPWINDi_r2_v1.2.,2013-03-12 16:02:00,
2013-03-12 12:07:00,45.3,44.2,30.02,SSE,148,10.0,17.0,96,0.00,,,0.00,HR-IXPWINDi_r2_v1.2.,2013-03-12 16:07:00,
2013-03-12 12:12:00,45.3,44.4,30.02,SE,138,10.0,16.0,97,0.00,,,0.00,HR-IXPWINDi_r2_v1.2.,2013-03-12 16:12:00,
2013-03-12 12:17:00,45.6,44.7,30.02,SE,126,10.0,16.0,97,0.00,,,0.00,HR-IXPWINDi_r2_v1.2.,2013-03-12 16:17:00,
2013-03-12 12:22:00,45.8,44.9,30.02,SE,131,11.0,17.0,97,0.00,,,0.00,HR-IXPWINDi_r2_v1.2.,2013-03-12 16:22:00,
2013-03-12 12:27:00,45.8,44.7,30.01,SE,136,8.0,18.0,96,0.00,,,0.00,HR-IXPWINDi_r2_v1.2.,2013-03-12 16:27:00,
2013-03-12 12:32:00,46.1,45.2,30.01,SSE,150,16.0,23.0,97,0.00,,,0.00,HR-IXPWINDi_r2_v1.2.,2013-03-12 16:32:00,
2013-03-12 12:37:00,46.0,44.9,30.00,SSE,163,9.0,23.0,96,0.00,,,0.00,HR-IXPWINDi_r2_v1.2.,2013-03-12 16:37:00,
2013-03-12 12:43:00,46.1,45.0,30.00,SSE,155,9.0,18.0,96,0.00,,,0.00,HR-IXPWINDi_r2_v1.2.,2013-03-12 16:43:00,
2013-03-12 12:48:00,45.8,44.7,30.00,SE,141,9.0,19.0,96,0.00,,,0.00,HR-IXPWINDi_r2_v1.2.,2013-03-12 16:48:00,
2013-03-12 12:53:00,45.9,44.8,30.00,SE,127,11.0,19.0,96,0.00,,,0.00,HR-IXPWINDi_r2_v1.2.,2013-03-12 16:53:00,
2013-03-12 12:58:00,45.7,44.6,30.00,SE,125,12.0,19.0,96,0.00,,,0.00,HR-IXPWINDi_r2_v1.2.,2013-03-12 16:58:00,
2013-03-12 13:03:00,45.5,44.4,30.00,ESE,107,7.0,19.0,96,0.00,,,0.00,HR-IXPWINDi_r2_v1.2.,2013-03-12 17:03:00,
2013-03-12 13:08:00,45.4,44.3,30.00,SE,146,13.0,19.0,96,0.00,,,0.00,HR-IXPWINDi_r2_v1.2.,2013-03-12 17:08:00,
2013-03-12 13:13:00,45.2,44.1,30.00,ESE,122,10.0,19.0,96,0.00,,,0.00,HR-IXPWINDi_r2_v1.2.,2013-03-12 17:13:00,
2013-03-12 13:19:00,45.2,44.1,29.99,SE,134,9.0,18.0,96,0.00,,,0.00,HR-IXPWINDi_r2_v1.2.,2013-03-12 17:19:00,
2013-03-12 13:24:00,45.3,44.4,29.99,SE,137,12.0,18.0,97,0.00,,,0.00,HR-IXPWINDi_r2_v1.2.,2013-03-12 17:24:00,
2013-03-12 13:29:00,45.5,44.6,29.99,SE,135,8.0,18.0,97,0.00,,,0.00,HR-IXPWINDi_r2_v1.2.,2013-03-12 17:29:00,
2013-03-12 13:34:00,45.5,44.4,29.99,SE,145,11.0,18.0,96,0.00,,,0.00,HR-IXPWINDi_r2_v1.2.,2013-03-12 17:34:00,
2013-03-12 13:39:00,45.5,44.4,29.99,SE,141,9.0,16.0,96,0.00,,,0.00,HR-IXPWINDi_r2_v1.2.,2013-03-12 17:39:00,
2013-03-12 13:44:00,45.7,44.6,29.98,SE,141,12.0,17.0,96,0.00,,,0.00,HR-IXPWINDi_r2_v1.2.,2013-03-12 17:44:00,
2013-03-12 13:50:00,45.6,44.5,29.98,SSE,160,17.0,20.0,96,0.00,,,0.00,HR-IXPWINDi_r2_v1.2.,2013-03-12 17:50:00,
2013-03-12 13:55:00,45.5,44.4,29.98,SE,141,11.0,20.0,96,0.00,,,0.00,HR-IXPWINDi_r2_v1.2.,2013-03-12 17:55:00,
2013-03-12 14:00:00,45.5,44.4,29.98,SE,143,12.0,18.0,96,0.00,,,0.00,HR-IXPWINDi_r2_v1.2.,2013-03-12 18:00:00,
2013-03-12 14:05:00,45.4,44.3,29.97,SE,134,10.0,16.0,96,0.00,,,0.00,HR-IXPWINDi_r2_v1.2.,2013-03-12 18:05:00,
2013-03-12 14:10:00,45.4,44.3,29.97,SE,140,11.0,16.0,96,0.00,,,0.00,HR-IXPWINDi_r2_v1.2.,2013-03-12 18:10:00,
2013-03-12 14:16:00,45.4,44.3,29.97,SE,143,12.0,17.0,96,0.00,,,0.00,HR-IXPWINDi_r2_v1.2.,2013-03-12 18:16:00,
2013-03-12 14:21:00,45.5,44.4,29.97,ESE,119,8.0,17.0,96,0.00,,,0.00,HR-IXPWINDi_r2_v1.2.,2013-03-12 18:21:00,
2013-03-12 14:26:00,45.5,44.4,29.96,ESE,122,14.0,19.0,96,0.00,,,0.00,HR-IXPWINDi_r2_v1.2.,2013-03-12 18:26:00,
2013-03-12 14:31:00,45.5,44.4,29.96,SE,126,13.0,19.0,96,0.00,,,0.00,HR-IXPWINDi_r2_v1.2.,2013-03-12 18:31:00,
2013-03-12 14:36:00,45.6,44.5,29.95,SSE,163,7.0,18.0,96,0.00,,,0.00,HR-IXPWINDi_r2_v1.2.,2013-03-12 18:36:00,
2013-03-12 14:41:00,45.6,44.5,29.95,SE,135,11.0,17.0,96,0.00,,,0.00,HR-IXPWINDi_r2_v1.2.,2013-03-12 18:41:00,
2013-03-12 14:47:00,45.5,44.4,29.95,SSE,160,9.0,17.0,96,0.00,,,0.00,HR-IXPWINDi_r2_v1.2.,2013-03-12 18:47:00,
2013-03-12 14:52:00,45.7,44.6,29.95,SSE,160,11.0,19.0,96,0.00,,,0.00,HR-IXPWINDi_r2_v1.2.,2013-03-12 18:52:00,
2013-03-12 14:57:00,45.9,44.8,29.95,SE,140,14.0,19.0,96,0.00,,,0.00,HR-IXPWINDi_r2_v1.2.,2013-03-12 18:57:00,
2013-03-12 15:02:00,46.3,45.2,29.95,ESE,122,11.0,21.0,96,0.00,,,0.00,HR-IXPWINDi_r2_v1.2.,2013-03-12 19:02:00,
2013-03-12 15:07:00,46.2,45.1,29.94,SE,133,15.0,21.0,96,0.00,,,0.00,HR-IXPWINDi_r2_v1.2.,2013-03-12 19:07:00,
2013-03-12 15:12:00,46.0,44.9,29.94,SE,145,9.0,20.0,96,0.00,,,0.00,HR-IXPWINDi_r2_v1.2.,2013-03-12 19:12:00,
2013-03-12 15:17:00,46.1,45.2,29.94,SSE,161,14.0,21.0,97,0.00,,,0.00,HR-IXPWINDi_r2_v1.2.,2013-03-12 19:17:00,
2013-03-12 15:23:00,45.9,44.8,29.93,SE,126,10.0,21.0,96,0.00,,,0.00,HR-IXPWINDi_r2_v1.2.,2013-03-12 19:23:00,
2013-03-12 15:28:00,45.8,44.7,29.93,SSE,148,11.0,21.0,96,0.00,,,0.00,HR-IXPWINDi_r2_v1.2.,2013-03-12 19:28:00,
2013-03-12 15:33:00,45.9,45.0,29.93,SE,145,12.0,21.0,97,0.00,,,0.01,HR-IXPWINDi_r2_v1.2.,2013-03-12 19:33:00,
2013-03-12 15:38:00,45.8,44.9,29.93,SSE,155,11.0,20.0,97,0.00,,,0.01,HR-IXPWINDi_r2_v1.2.,2013-03-12 19:38:00,
2013-03-12 15:43:00,45.7,44.8,29.93,SSE,148,11.0,20.0,97,0.00,,,0.01,HR-IXPWINDi_r2_v1.2.,2013-03-12 19:43:00,
2013-03-12 15:49:00,45.6,44.7,29.92,SE,131,15.0,18.0,97,0.00,,,0.02,HR-IXPWINDi_r2_v1.2.,2013-03-12 19:49:00,
2013-03-12 15:54:00,45.5,44.6,29.92,SE,132,10.0,18.0,97,0.00,,,0.02,HR-IXPWINDi_r2_v1.2.,2013-03-12 19:54:00,
2013-03-12 15:59:00,45.6,44.7,29.91,SE,132,13.0,18.0,97,0.05,,,0.02,HR-IXPWINDi_r2_v1.2.,2013-03-12 19:59:00,
2013-03-12 16:04:00,45.7,44.8,29.91,SE,132,9.0,22.0,97,0.05,,,0.03,HR-IXPWINDi_r2_v1.2.,2013-03-12 20:04:00,
2013-03-12 16:09:00,45.7,44.8,29.90,ESE,108,11.0,22.0,97,0.05,,,0.03,HR-IXPWINDi_r2_v1.2.,2013-03-12 20:09:00,
2013-03-12 16:14:00,45.7,44.8,29.90,SE,132,12.0,18.0,97,0.05,,,0.04,HR-IXPWINDi_r2_v1.2.,2013-03-12 20:14:00,
2013-03-12 16:20:00,46.1,45.5,29.90,SSE,148,10.0,22.0,98,0.05,,,0.04,HR-IXPWINDi_r2_v1.2.,2013-03-12 20:20:00,
2013-03-12 16:25:00,46.4,45.8,29.90,ESE,122,16.0,22.0,98,0.04,,,0.05,HR-IXPWINDi_r2_v1.2.,2013-03-12 20:25:00,
2013-03-12 16:30:00,46.1,45.5,29.90,SE,131,9.0,20.0,98,0.04,,,0.05,HR-IXPWINDi_r2_v1.2.,2013-03-12 20:30:00,
2013-03-12 16:35:00,46.2,45.6,29.90,SE,138,13.0,20.0,98,0.07,,,0.06,HR-IXPWINDi_r2_v1.2.,2013-03-12 20:35:00,
2013-03-12 16:40:00,46.1,45.5,29.90,SE,141,14.0,20.0,98,0.09,,,0.07,HR-IXPWINDi_r2_v1.2.,2013-03-12 20:40:00,
2013-03-12 16:45:00,46.1,45.5,29.89,ESE,123,13.0,21.0,98,0.15,,,0.08,HR-IXPWINDi_r2_v1.2.,2013-03-12 20:45:00,
2013-03-12 16:50:00,46.2,45.6,29.89,SSE,150,16.0,21.0,98,0.12,,,0.09,HR-IXPWINDi_r2_v1.2.,2013-03-12 20:50:00,
2013-03-12 16:56:00,47.0,46.4,29.88,SSE,148,17.0,21.0,98,0.10,,,0.10,HR-IXPWINDi_r2_v1.2.,2013-03-12 20:56:00,
2013-03-12 17:01:00,46.8,46.2,29.88,SE,130,15.0,22.0,98,0.07,,,0.10,HR-IXPWINDi_r2_v1.2.,2013-03-12 21:01:00,
2013-03-12 17:06:00,46.3,45.7,29.88,SSE,153,12.0,22.0,98,0.12,,,0.12,HR-IXPWINDi_r2_v1.2.,2013-03-12 21:06:00,
2013-03-12 17:12:00,46.1,45.5,29.88,SE,133,13.0,20.0,98,0.10,,,0.12,HR-IXPWINDi_r2_v1.2.,2013-03-12 21:12:00,
2013-03-12 17:17:00,46.3,45.7,29.87,SSE,148,12.0,20.0,98,0.07,,,0.13,HR-IXPWINDi_r2_v1.2.,2013-03-12 21:17:00,
2013-03-12 17:22:00,46.7,46.1,29.86,ESE,116,11.0,20.0,98,0.09,,,0.14,HR-IXPWINDi_r2_v1.2.,2013-03-12 21:22:00,
2013-03-12 17:27:00,46.8,46.2,29.86,SSE,150,18.0,21.0,98,0.11,,,0.14,HR-IXPWINDi_r2_v1.2.,2013-03-12 21:27:00,
2013-03-12 17:32:00,46.6,46.0,29.85,ESE,113,11.0,21.0,98,0.11,,,0.15,HR-IXPWINDi_r2_v1.2.,2013-03-12 21:32:00,
2013-03-12 17:37:00,46.7,46.1,29.85,SSE,156,12.0,22.0,98,0.12,,,0.16,HR-IXPWINDi_r2_v1.2.,2013-03-12 21:37:00,
2013-03-12 17:43:00,46.3,45.7,29.85,ESE,115,7.0,22.0,98,0.08,,,0.17,HR-IXPWINDi_r2_v1.2.,2013-03-12 21:43:00,
2013-03-12 17:48:00,45.9,45.3,29.84,SSE,153,8.0,18.0,98,0.14,,,0.18,HR-IXPWINDi_r2_v1.2.,2013-03-12 21:48:00,
2013-03-12 17:53:00,45.7,45.1,29.84,SE,136,11.0,20.0,98,0.16,,,0.20,HR-IXPWINDi_r2_v1.2.,2013-03-12 21:53:00,
2013-03-12 17:58:00,45.6,45.0,29.84,SE,126,18.0,20.0,98,0.12,,,0.21,HR-IXPWINDi_r2_v1.2.,2013-03-12 21:58:00,
2013-03-12 18:03:00,45.6,45.0,29.84,SE,139,14.0,20.0,98,0.14,,,0.22,HR-IXPWINDi_r2_v1.2.,2013-03-12 22:03:00,
2013-03-12 18:08:00,46.0,45.4,29.84,SE,145,11.0,23.0,98,0.13,,,0.23,HR-IXPWINDi_r2_v1.2.,2013-03-12 22:08:00,
2013-03-12 18:14:00,46.1,45.5,29.83,SE,131,14.0,23.0,98,0.09,,,0.23,HR-IXPWINDi_r2_v1.2.,2013-03-12 22:14:00,
2013-03-12 18:19:00,45.9,45.3,29.83,SE,144,14.0,21.0,98,0.05,,,0.23,HR-IXPWINDi_r2_v1.2.,2013-03-12 22:19:00,
2013-03-12 18:24:00,45.9,45.3,29.83,SE,143,20.0,21.0,98,0.04,,,0.24,HR-IXPWINDi_r2_v1.2.,2013-03-12 22:24:00,
2013-03-12 18:29:00,45.9,45.3,29.83,SSE,155,10.0,21.0,98,0.08,,,0.25,HR-IXPWINDi_r2_v1.2.,2013-03-12 22:29:00,
2013-03-12 18:34:00,45.8,45.2,29.82,East,81,19.0,21.0,98,0.13,,,0.26,HR-IXPWINDi_r2_v1.2.,2013-03-12 22:34:00,
2013-03-12 18:40:00,45.8,45.2,29.82,SE,131,12.0,22.0,98,0.15,,,0.27,HR-IXPWINDi_r2_v1.2.,2013-03-12 22:40:00,
2013-03-12 18:45:00,46.0,45.4,29.82,SE,139,19.0,22.0,98,0.13,,,0.28,HR-IXPWINDi_r2_v1.2.,2013-03-12 22:45:00,
2013-03-12 18:50:00,46.0,45.4,29.81,South,176,16.0,21.0,98,0.09,,,0.29,HR-IXPWINDi_r2_v1.2.,2013-03-12 22:50:00,
2013-03-12 18:55:00,46.2,45.6,29.81,SE,142,15.0,25.0,98,0.11,,,0.30,HR-IXPWINDi_r2_v1.2.,2013-03-12 22:55:00,
2013-03-12 19:01:00,46.3,45.7,29.80,SSE,155,21.0,25.0,98,0.21,,,0.32,HR-IXPWINDi_r2_v1.2.,2013-03-12 23:01:00,
2013-03-12 19:06:00,46.3,45.7,29.80,SE,142,16.0,23.0,98,0.23,,,0.34,HR-IXPWINDi_r2_v1.2.,2013-03-12 23:06:00,
2013-03-12 19:11:00,46.6,46.0,29.79,SSE,153,25.0,27.0,98,0.18,,,0.35,HR-IXPWINDi_r2_v1.2.,2013-03-12 23:11:00,
2013-03-12 19:16:00,46.9,46.3,29.80,SE,136,22.0,32.0,98,0.11,,,0.36,HR-IXPWINDi_r2_v1.2.,2013-03-12 23:16:00,
2013-03-12 19:21:00,47.3,46.7,29.80,SSE,158,20.0,32.0,98,0.14,,,0.37,HR-IXPWINDi_r2_v1.2.,2013-03-12 23:21:00,
2013-03-12 19:27:00,47.1,46.5,29.79,SE,141,14.0,30.0,98,0.29,,,0.39,HR-IXPWINDi_r2_v1.2.,2013-03-12 23:27:00,
2013-03-12 19:32:00,46.9,46.3,29.80,SSE,165,21.0,30.0,98,0.25,,,0.41,HR-IXPWINDi_r2_v1.2.,2013-03-12 23:32:00,
2013-03-12 19:37:00,46.9,46.3,29.80,SSE,155,25.0,30.0,98,0.09,,,0.42,HR-IXPWINDi_r2_v1.2.,2013-03-12 23:37:00,
2013-03-12 19:42:00,47.0,46.7,29.79,SSE,153,25.0,30.0,99,0.09,,,0.42,HR-IXPWINDi_r2_v1.2.,2013-03-12 23:42:00,
2013-03-12 19:48:00,46.8,46.5,29.80,SSE,162,22.0,32.0,99,0.06,,,0.43,HR-IXPWINDi_r2_v1.2.,2013-03-12 23:48:00,
2013-03-12 19:53:00,47.0,46.7,29.79,SSE,162,26.0,32.0,99,0.13,,,0.44,HR-IXPWINDi_r2_v1.2.,2013-03-12 23:53:00,
2013-03-12 19:58:00,46.9,46.6,29.80,SSE,150,22.0,32.0,99,0.11,,,0.45,HR-IXPWINDi_r2_v1.2.,2013-03-12 23:58:00,
2013-03-12 20:03:00,46.4,46.1,29.80,SSE,167,27.0,31.0,99,0.06,,,0.45,HR-IXPWINDi_r2_v1.2.,2013-03-13 00:03:00,
2013-03-12 20:08:00,46.3,46.0,29.81,South,170,17.0,30.0,99,0.04,,,0.46,HR-IXPWINDi_r2_v1.2.,2013-03-13 00:08:00,
2013-03-12 20:14:00,46.3,46.0,29.80,South,174,14.0,28.0,99,0.04,,,0.46,HR-IXPWINDi_r2_v1.2.,2013-03-13 00:14:00,
2013-03-12 20:19:00,46.7,46.4,29.80,SSE,160,30.0,31.0,99,0.04,,,0.46,HR-IXPWINDi_r2_v1.2.,2013-03-13 00:19:00,
2013-03-12 20:24:00,46.5,46.2,29.81,South,184,21.0,31.0,99,0.04,,,0.46,HR-IXPWINDi_r2_v1.2.,2013-03-13 00:24:00,
2013-03-12 20:29:00,46.0,45.7,29.80,SSE,153,20.0,31.0,99,0.00,,,0.46,HR-IXPWINDi_r2_v1.2.,2013-03-13 00:29:00,
2013-03-12 20:34:00,45.8,45.5,29.80,SSE,167,18.0,28.0,99,0.00,,,0.47,HR-IXPWINDi_r2_v1.2.,2013-03-13 00:34:00,
2013-03-12 20:40:00,45.7,45.4,29.81,SSW,210,13.0,23.0,99,0.00,,,0.47,HR-IXPWINDi_r2_v1.2.,2013-03-13 00:40:00,
2013-03-12 20:45:00,45.2,44.9,29.81,SW,215,14.0,21.0,99,0.06,,,0.48,HR-IXPWINDi_r2_v1.2.,2013-03-13 00:45:00,
2013-03-12 20:50:00,46.3,46.0,29.82,South,188,21.0,25.0,99,0.13,,,0.49,HR-IXPWINDi_r2_v1.2.,2013-03-13 00:50:00,
2013-03-12 20:55:00,46.7,46.4,29.82,SSW,195,14.0,29.0,99,0.06,,,0.49,HR-IXPWINDi_r2_v1.2.,2013-03-13 00:55:00,
2013-03-12 21:00:00,46.1,45.8,29.82,SSW,201,11.0,29.0,99,0.04,,,0.49,HR-IXPWINDi_r2_v1.2.,2013-03-13 01:00:00,
2013-03-12 21:05:00,45.9,45.6,29.82,SSW,210,13.0,18.0,99,0.00,,,0.49,HR-IXPWINDi_r2_v1.2.,2013-03-13 01:05:00,
2013-03-12 21:11:00,46.1,45.8,29.82,SW,217,17.0,18.0,99,0.00,,,0.50,HR-IXPWINDi_r2_v1.2.,2013-03-13 01:11:00,
2013-03-12 21:16:00,46.2,45.9,29.82,SSW,212,15.0,19.0,99,0.08,,,0.51,HR-IXPWINDi_r2_v1.2.,2013-03-13 01:16:00,
2013-03-12 21:22:00,46.1,45.8,29.81,SSW,201,14.0,19.0,99,0.16,,,0.53,HR-IXPWINDi_r2_v1.2.,2013-03-13 01:22:00,
2013-03-12 21:27:00,46.6,46.3,29.81,SSW,208,16.0,18.0,99,0.09,,,0.53,HR-IXPWINDi_r2_v1.2.,2013-03-13 01:27:00,
2013-03-12 21:32:00,46.7,46.4,29.81,SSW,200,16.0,18.0,99,0.08,,,0.54,HR-IXPWINDi_r2_v1.2.,2013-03-13 01:32:00,
2013-03-12 21:37:00,46.5,46.2,29.81,SSW,197,16.0,19.0,99,0.07,,,0.54,HR-IXPWINDi_r2_v1.2.,2013-03-13 01:37:00,
2013-03-12 21:42:00,46.7,46.4,29.81,SW,214,13.0,19.0,99,0.04,,,0.54,HR-IXPWINDi_r2_v1.2.,2013-03-13 01:42:00,
2013-03-12 21:47:00,46.2,45.9,29.81,SSW,193,16.0,19.0,99,0.00,,,0.55,HR-IXPWINDi_r2_v1.2.,2013-03-13 01:47:00,
2013-03-12 21:53:00,45.6,45.3,29.81,SSE,164,9.0,17.0,99,0.00,,,0.55,HR-IXPWINDi_r2_v1.2.,2013-03-13 01:53:00,
2013-03-12 21:58:00,45.3,45.0,29.80,SSE,165,12.0,17.0,99,0.00,,,0.55,HR-IXPWINDi_r2_v1.2.,2013-03-13 01:58:00,
2013-03-12 22:03:00,45.4,45.1,29.80,South,182,8.0,16.0,99,0.00,,,0.55,HR-IXPWINDi_r2_v1.2.,2013-03-13 02:03:00,
2013-03-12 22:08:00,45.2,44.9,29.80,South,191,11.0,15.0,99,0.00,,,0.55,HR-IXPWINDi_r2_v1.2.,2013-03-13 02:08:00,
2013-03-12 22:13:00,45.2,44.9,29.79,South,174,9.0,13.0,99,0.00,,,0.55,HR-IXPWINDi_r2_v1.2.,2013-03-13 02:13:00,
2013-03-12 22:19:00,44.9,44.6,29.79,South,184,7.0,13.0,99,0.00,,,0.55,HR-IXPWINDi_r2_v1.2.,2013-03-13 02:19:00,
2013-03-12 22:24:00,44.9,44.6,29.79,SSW,212,8.0,13.0,99,0.00,,,0.55,HR-IXPWINDi_r2_v1.2.,2013-03-13 02:24:00,
2013-03-12 22:29:00,45.1,44.8,29.79,SSW,196,8.0,11.0,99,0.00,,,0.55,HR-IXPWINDi_r2_v1.2.,2013-03-13 02:29:00,
2013-03-12 22:34:00,45.0,44.7,29.79,SSW,210,9.0,13.0,99,0.00,,,0.55,HR-IXPWINDi_r2_v1.2.,2013-03-13 02:34:00,
2013-03-12 22:39:00,44.8,44.5,29.79,SSW,212,9.0,13.0,99,0.00,,,0.55,HR-IXPWINDi_r2_v1.2.,2013-03-13 02:39:00,
2013-03-12 22:45:00,45.1,44.8,29.79,SW,220,8.0,12.0,99,0.00,,,0.55,HR-IXPWINDi_r2_v1.2.,2013-03-13 02:45:00,
2013-03-12 22:50:00,45.3,45.0,29.79,WSW,253,10.0,14.0,99,0.00,,,0.55,HR-IXPWINDi_r2_v1.2.,2013-03-13 02:50:00,
2013-03-12 22:55:00,45.5,45.2,29.80,SW,221,11.0,15.0,99,0.00,,,0.55,HR-IXPWINDi_r2_v1.2.,2013-03-13 02:55:00,
2013-03-12 23:00:00,45.4,45.1,29.80,SW,226,9.0,15.0,99,0.00,,,0.55,HR-IXPWINDi_r2_v1.2.,2013-03-13 03:00:00,
2013-03-12 23:05:00,45.2,44.9,29.80,SW,222,8.0,14.0,99,0.00,,,0.55,HR-IXPWINDi_r2_v1.2.,2013-03-13 03:05:00,
2013-03-12 23:10:00,44.7,44.4,29.80,SW,225,6.0,14.0,99,0.00,,,0.55,HR-IXPWINDi_r2_v1.2.,2013-03-13 03:10:00,
2013-03-12 23:16:00,44.6,44.3,29.80,SW,224,11.0,12.0,99,0.00,,,0.55,HR-IXPWINDi_r2_v1.2.,2013-03-13 03:16:00,
2013-03-12 23:21:00,44.5,44.2,29.79,SW,228,10.0,13.0,99,0.00,,,0.55,HR-IXPWINDi_r2_v1.2.,2013-03-13 03:21:00,
2013-03-12 23:26:00,44.5,44.2,29.80,SW,224,10.0,14.0,99,0.00,,,0.55,HR-IXPWINDi_r2_v1.2.,2013-03-13 03:26:00,
2013-03-12 23:31:00,44.4,44.1,29.80,SW,217,8.0,14.0,99,0.00,,,0.55,HR-IXPWINDi_r2_v1.2.,2013-03-13 03:31:00,
2013-03-12 23:37:00,44.3,44.0,29.79,SW,226,12.0,13.0,99,0.00,,,0.56,HR-IXPWINDi_r2_v1.2.,2013-03-13 03:37:00,
2013-03-12 23:42:00,44.3,44.0,29.79,WSW,238,5.0,14.0,99,0.00,,,0.56,HR-IXPWINDi_r2_v1.2.,2013-03-13 03:42:00,
2013-03-12 23:47:00,44.1,43.8,29.79,WSW,250,7.0,14.0,99,0.06,,,0.57,HR-IXPWINDi_r2_v1.2.,2013-03-13 03:47:00,
2013-03-12 23:52:00,44.1,43.8,29.79,SSW,212,2.0,10.0,99,0.10,,,0.58,HR-IXPWINDi_r2_v1.2.,2013-03-13 03:52:00,
2013-03-12 23:58:00,44.0,43.7,29.79,SSW,210,3.0,8.0,99,0.09,,,0.58,HR-IXPWINDi_r2_v1.2.,2013-03-13 03:58:00,